K?dainiai Air Base


Codes: EYKD/
Name: K?dainiai Air Base
City: K?dainiai
Country: Lithuania
Elevation: 171 ft.
Wikipedia:

Photos at K?dainiai Air Base


   Photos courtesy of SpottingLog. You can add your own sightings and photos by signing up for a free trial today.



No photos found.

Weather at K?dainiai Air Base


Time (UTC)DescriptionTempratureWindCloud coverageVisibilityPressureHumidity
23-May-2024 21:00Light Rain20°C11 mph, SE82%10000m1021hPa89%
24-May-2024 00:00Broken Clouds17°C9 mph, SE84%10000m1022hPa91%
24-May-2024 03:00Overcast Clouds14°C7 mph, SE85%10000m1023hPa95%
24-May-2024 06:00Broken Clouds18°C11 mph, SE61%10000m1024hPa83%
24-May-2024 09:00Scattered Clouds22°C11 mph, SE48%10000m1025hPa67%
24-May-2024 12:00Light Rain23°C11 mph, SE47%10000m1024hPa65%
24-May-2024 15:00Light Rain21°C11 mph, SE70%10000m1024hPa77%
24-May-2024 18:00Light Rain18°C9 mph, SE86%10000m1024hPa90%
24-May-2024 21:00Broken Clouds16°C9 mph, SE77%10000m1024hPa94%
25-May-2024 00:00Scattered Clouds14°C9 mph, SE43%10000m1025hPa95%
25-May-2024 03:00Clear Sky14°C9 mph, SE1%10000m1025hPa95%
25-May-2024 06:00Clear Sky18°C11 mph, SE0%10000m1025hPa81%
25-May-2024 09:00Clear Sky22°C11 mph, SE0%10000m1025hPa63%
25-May-2024 12:00Light Rain24°C11 mph, SE1%10000m1024hPa55%
25-May-2024 15:00Light Rain22°C11 mph, SE25%10000m1023hPa66%
25-May-2024 18:00Light Rain17°C9 mph, SE15%10000m1025hPa88%
25-May-2024 21:00Scattered Clouds15°C7 mph, SE28%10000m1025hPa93%
26-May-2024 00:00Broken Clouds14°C7 mph, SE65%10000m1025hPa93%
26-May-2024 03:00Overcast Clouds14°C4 mph, SE100%10000m1026hPa93%
26-May-2024 06:00Overcast Clouds18°C9 mph, SE96%10000m1027hPa81%
26-May-2024 09:00Clear Sky22°C11 mph, SE0%10000m1027hPa55%
26-May-2024 12:00Clear Sky23°C11 mph, SE2%10000m1027hPa47%
26-May-2024 15:00Few Clouds23°C9 mph, SE17%10000m1026hPa59%
26-May-2024 18:00Scattered Clouds18°C4 mph, SE28%10000m1026hPa76%
26-May-2024 21:00Clear Sky14°C7 mph, SE2%10000m1027hPa81%
27-May-2024 00:00Clear Sky13°C4 mph, S5%10000m1028hPa85%
27-May-2024 03:00Scattered Clouds12°C7 mph, SE30%10000m1028hPa83%
27-May-2024 06:00Scattered Clouds18°C7 mph, SE43%10000m1028hPa71%
27-May-2024 09:00Scattered Clouds22°C9 mph, SE38%10000m1027hPa55%
27-May-2024 12:00Broken Clouds23°C7 mph, SE62%10000m1026hPa47%
27-May-2024 15:00Overcast Clouds23°C7 mph, S97%10000m1025hPa57%
27-May-2024 18:00Overcast Clouds18°C7 mph, SE93%10000m1025hPa69%
27-May-2024 21:00Scattered Clouds15°C7 mph, SE30%10000m1025hPa71%
28-May-2024 00:00Scattered Clouds13°C4 mph, SE40%10000m1025hPa79%
28-May-2024 03:00Scattered Clouds13°C4 mph, SE45%10000m1024hPa83%
28-May-2024 06:00Scattered Clouds19°C7 mph, SE38%10000m1024hPa72%
28-May-2024 09:00Broken Clouds23°C9 mph, SE51%10000m1022hPa56%
28-May-2024 12:00Broken Clouds21°C7 mph, SE61%10000m1021hPa70%
28-May-2024 15:00Light Rain23°C7 mph, SE89%10000m1019hPa70%
28-May-2024 18:00Light Rain19°C7 mph, SE81%10000m1019hPa80%